Time;durP1;ratioP1;P1;durP2;ratioP2;P2;SDS_P1;SDS_P2;PMS_P1;PMS_P2;Temp;Humidity;BMP_temperature;BMP_pressure;BME280_temperature;BME280_humidity;BME280_pressure;Samples;Min_cycle;Max_cycle;Signal;HPM_P1;HPM_P2
2021/08/27 00:00:01;;;;;;;7.05;3.63;;;;;;;16.59;73.16;99675.25;5093372;28;20040;-71
2021/08/27 00:02:32;;;;;;;8.38;4.20;;;;;;;16.66;73.66;99686.31;5093305;28;20058;-71
2021/08/27 00:05:00;;;;;;;7.43;4.05;;;;;;;16.57;74.42;99697.94;5093113;28;20040;-71
2021/08/27 00:07:29;;;;;;;7.82;4.13;;;;;;;16.53;75.53;99680.41;5093044;28;20504;-71
2021/08/27 00:09:58;;;;;;;6.88;4.10;;;;;;;16.57;75.37;99679.94;5092609;28;20047;-71
2021/08/27 00:12:26;;;;;;;6.07;3.88;;;;;;;16.45;76.11;99664.97;5093009;28;20515;-71
2021/08/27 00:14:55;;;;;;;9.25;4.25;;;;;;;16.44;77.64;99659.72;5092686;28;20048;-70
2021/08/27 00:17:29;;;;;;;9.00;4.43;;;;;;;16.40;77.36;99647.53;5093002;28;20043;-71
2021/08/27 00:20:05;;;;;;;7.35;4.07;;;;;;;16.29;78.36;99635.09;5092946;28;20090;-71
2021/08/27 00:22:35;;;;;;;9.02;4.50;;;;;;;16.21;79.04;99626.88;5092908;28;20044;-71
2021/08/27 00:25:06;;;;;;;7.90;4.18;;;;;;;16.18;80.21;99628.03;5092859;28;20427;-71
2021/08/27 00:27:36;;;;;;;7.95;4.20;;;;;;;16.15;80.15;99628.31;5093086;28;20044;-71
2021/08/27 00:30:04;;;;;;;7.03;4.05;;;;;;;16.36;79.62;99636.22;5092840;28;20052;-71
2021/08/27 00:32:33;;;;;;;8.85;4.28;;;;;;;16.41;79.86;99647.41;5092810;28;20044;-70
2021/08/27 00:35:04;;;;;;;6.85;4.10;;;;;;;16.35;79.64;99652.50;5092447;28;20489;-69
2021/08/27 00:37:33;;;;;;;6.75;4.15;;;;;;;16.33;80.52;99663.44;5092780;28;20488;-70
2021/08/27 00:40:02;;;;;;;6.72;3.88;;;;;;;16.32;78.69;99645.59;5092371;28;20063;-70
2021/08/27 00:42:32;;;;;;;6.88;3.80;;;;;;;16.28;80.26;99657.59;5092764;28;20067;-70
2021/08/27 00:45:00;;;;;;;7.82;4.50;;;;;;;16.27;81.40;99653.22;5074590;28;20060;-70
2021/08/27 00:47:29;;;;;;;9.05;4.80;;;;;;;16.23;82.28;99657.19;5092641;28;20075;-71
2021/08/27 00:49:57;;;;;;;7.50;4.32;;;;;;;16.14;83.68;99641.91;5092632;28;20040;-71
2021/08/27 00:52:26;;;;;;;7.35;4.35;;;;;;;16.02;87.30;99644.75;5092824;28;20048;-70
2021/08/27 00:54:54;;;;;;;8.00;4.50;;;;;;;15.98;88.07;99639.78;5092200;28;20055;-71
2021/08/27 00:57:23;;;;;;;6.53;4.22;;;;;;;15.96;88.48;99650.69;5092580;28;20068;-70
2021/08/27 00:59:53;;;;;;;7.72;4.50;;;;;;;15.98;88.49;99640.63;5092544;28;20477;-71
2021/08/27 01:02:21;;;;;;;7.75;4.50;;;;;;;15.98;87.57;99643.31;5092931;28;20366;-70
2021/08/27 01:04:50;;;;;;;8.25;4.40;;;;;;;16.00;87.45;99646.72;5092300;28;20044;-71
2021/08/27 01:07:21;;;;;;;8.55;4.60;;;;;;;15.96;87.42;99634.56;5092606;28;20093;-70
2021/08/27 01:09:57;;;;;;;8.00;4.40;;;;;;;15.93;88.50;99640.22;5092211;28;20078;-71
2021/08/27 01:12:31;;;;;;;7.93;4.30;;;;;;;15.91;87.95;99639.50;5091872;28;20468;-71
2021/08/27 01:15:05;;;;;;;6.40;4.10;;;;;;;15.85;89.10;99648.13;5092501;28;20513;-71
2021/08/27 01:17:39;;;;;;;8.43;4.80;;;;;;;15.81;89.73;99645.84;5092703;28;20392;-71
2021/08/27 01:21:02;;;;;;;11.65;4.82;;;;;;;15.86;88.78;99644.47;5092953;28;20048;-71
2021/08/27 01:23:38;;;;;;;9.38;4.90;;;;;;;15.84;88.55;99641.06;5088639;28;20051;-71
2021/08/27 01:26:06;;;;;;;8.80;4.93;;;;;;;15.83;88.54;99639.38;5096443;28;20044;-71
2021/08/27 01:28:40;;;;;;;8.70;4.93;;;;;;;15.76;89.83;99640.91;5096090;28;20066;-70
2021/08/27 01:31:29;;;;;;;8.88;5.05;;;;;;;15.74;90.90;99643.75;5078025;28;20060;-71
2021/08/27 01:34:06;;;;;;;11.68;5.55;;;;;;;15.71;91.48;99640.47;5095779;28;20097;-71
2021/08/27 01:36:38;;;;;;;10.85;5.38;;;;;;;15.73;91.46;99638.50;5095908;28;20044;-71
2021/08/27 01:39:09;;;;;;;9.02;5.40;;;;;;;15.82;91.05;99643.03;5095716;28;20058;-71
2021/08/27 01:41:41;;;;;;;12.07;5.30;;;;;;;15.84;90.93;99640.22;5095715;28;20147;-71
2021/08/27 01:44:12;;;;;;;8.20;4.97;;;;;;;15.82;92.08;99636.78;5096062;28;20097;-71
2021/08/27 01:46:44;;;;;;;10.52;5.43;;;;;;;15.85;90.59;99621.25;5095799;28;20048;-76
2021/08/27 01:49:14;;;;;;;9.07;5.15;;;;;;;15.76;90.83;99616.72;5095745;28;20046;-70
2021/08/27 01:51:45;;;;;;;9.20;5.07;;;;;;;15.76;91.38;99627.47;5095342;28;20042;-72
2021/08/27 01:54:15;;;;;;;9.10;5.00;;;;;;;15.63;92.57;99627.75;5095513;28;20051;-71
2021/08/27 01:56:44;;;;;;;8.63;5.30;;;;;;;15.64;93.34;99636.66;5095341;28;20051;-72
2021/08/27 01:59:13;;;;;;;8.13;5.20;;;;;;;15.58;94.59;99631.78;5095709;28;20081;-71
2021/08/27 02:01:41;;;;;;;9.50;5.38;;;;;;;15.51;95.42;99636.03;5095661;28;20036;-71
2021/08/27 02:04:12;;;;;;;10.73;5.82;;;;;;;15.50;96.29;99640.53;5095274;28;20039;-70
2021/08/27 02:06:43;;;;;;;9.68;5.30;;;;;;;15.44;98.63;99633.91;5095294;28;20040;-71
2021/08/27 02:09:14;;;;;;;9.55;5.15;;;;;;;15.45;99.58;99646.34;5095274;28;20043;-71
2021/08/27 02:11:43;;;;;;;10.88;5.70;;;;;;;15.39;100.00;99640.66;5095332;28;20055;-71
2021/08/27 02:14:14;;;;;;;9.65;5.65;;;;;;;15.36;100.00;99636.44;5077367;28;20048;-71
2021/08/27 02:16:42;;;;;;;9.40;5.88;;;;;;;15.42;100.00;99641.22;5095269;28;20055;-70
2021/08/27 02:19:11;;;;;;;11.00;5.78;;;;;;;15.49;100.00;99646.06;5094960;28;20048;-71
2021/08/27 02:21:41;;;;;;;8.38;5.28;;;;;;;15.58;100.00;99653.31;5095001;28;20451;-69
2021/08/27 02:24:16;;;;;;;10.20;5.45;;;;;;;15.53;99.40;99647.47;5095300;28;20040;-76
2021/08/27 02:26:46;;;;;;;8.27;5.05;;;;;;;15.51;98.91;99642.25;5094738;28;20048;-83
2021/08/27 02:29:17;;;;;;;7.90;4.78;;;;;;;15.41;99.46;99647.59;5094937;28;20075;-76
2021/08/27 02:31:52;;;;;;;8.80;5.13;;;;;;;15.35;99.07;99623.97;5093685;28;20105;-77
2021/08/27 02:34:21;;;;;;;9.48;5.25;;;;;;;15.31;98.67;99619.84;5094950;28;20036;-76
2021/08/27 02:36:53;;;;;;;10.00;5.10;;;;;;;15.31;98.63;99619.00;5076378;28;20413;-76
2021/08/27 02:39:25;;;;;;;8.32;4.95;;;;;;;15.33;99.43;99625.94;5094712;28;20040;-76
2021/08/27 02:41:54;;;;;;;8.13;4.97;;;;;;;15.31;99.35;99633.28;5094355;28;20047;-76
2021/08/27 02:44:23;;;;;;;9.75;5.20;;;;;;;15.30;99.69;99612.78;5094844;28;20040;-75
2021/08/27 02:46:51;;;;;;;9.13;4.97;;;;;;;15.27;99.71;99610.38;5094173;28;20542;-76
2021/08/27 02:49:20;;;;;;;9.45;5.22;;;;;;;15.24;99.71;99610.63;5094326;28;20497;-76
2021/08/27 02:51:55;;;;;;;8.88;5.20;;;;;;;15.24;99.58;99604.41;5094163;28;20044;-77
2021/08/27 02:54:30;;;;;;;8.15;4.80;;;;;;;15.23;99.22;99608.94;5094445;28;20070;-76
2021/08/27 02:57:02;;;;;;;9.05;4.95;;;;;;;15.22;99.70;99611.78;5094260;28;20036;-77
2021/08/27 02:59:32;;;;;;;8.37;5.20;;;;;;;15.15;100.00;99611.44;5094365;28;20131;-77
2021/08/27 03:02:03;;;;;;;8.15;5.28;;;;;;;15.21;100.00;99600.16;5076214;28;20102;-77
2021/08/27 03:04:41;;;;;;;8.82;4.88;;;;;;;15.26;100.00;99607.84;5094379;28;20059;-77
2021/08/27 03:07:12;;;;;;;7.68;4.65;;;;;;;15.16;100.00;99613.19;5093613;28;20051;-77
2021/08/27 03:09:51;;;;;;;9.13;5.50;;;;;;;15.10;100.00;99617.25;5094163;28;20085;-80
2021/08/27 03:12:26;;;;;;;9.50;5.53;;;;;;;15.14;100.00;99620.50;5094450;28;20039;-79
2021/08/27 03:14:57;;;;;;;9.00;5.28;;;;;;;15.16;100.00;99629.31;5094516;28;20416;-78
2021/08/27 03:17:29;;;;;;;8.15;5.10;;;;;;;15.15;100.00;99628.44;5094408;28;20036;-78
2021/08/27 03:20:04;;;;;;;8.57;5.30;;;;;;;15.17;100.00;99625.63;5093986;28;20054;-79
2021/08/27 03:22:38;;;;;;;8.68;5.45;;;;;;;15.26;99.82;99627.50;5094161;28;20071;-79
2021/08/27 03:25:10;;;;;;;8.35;5.25;;;;;;;15.12;99.78;99635.91;5093754;28;20432;-76
2021/08/27 03:27:43;;;;;;;8.15;5.60;;;;;;;15.12;100.00;99650.19;5093693;28;20048;-76
2021/08/27 03:30:16;;;;;;;9.20;5.63;;;;;;;15.14;100.00;99647.38;5093716;28;20032;-76
2021/08/27 03:32:46;;;;;;;;;;;;;;;15.13;100.00;99659.09;5094454;28;20123;-76
2021/08/27 03:35:15;;;;;;;9.70;5.72;;;;;;;15.10;100.00;99656.69;5093929;28;20018;-77
2021/08/27 03:37:44;;;;;;;8.65;5.55;;;;;;;15.02;100.00;99651.16;5093423;28;20040;-77
2021/08/27 03:40:15;;;;;;;11.27;6.72;;;;;;;15.03;100.00;99667.13;5093338;28;20447;-77
2021/08/27 03:42:44;;;;;;;8.90;5.88;;;;;;;15.05;100.00;99664.28;5093745;28;20449;-77
2021/08/27 03:45:13;;;;;;;10.27;6.32;;;;;;;15.03;100.00;99671.63;5093270;28;20047;-77
2021/08/27 03:47:44;;;;;;;10.45;6.28;;;;;;;15.05;100.00;99672.34;5075788;28;20412;-78
2021/08/27 03:50:13;;;;;;;10.45;6.15;;;;;;;15.05;100.00;99675.03;5093024;28;20036;-79
2021/08/27 03:52:44;;;;;;;10.57;6.03;;;;;;;15.02;100.00;99686.91;5093192;28;20071;-79
2021/08/27 03:55:17;;;;;;;11.32;6.43;;;;;;;15.07;100.00;99689.22;5093206;28;20404;-78
2021/08/27 03:57:47;;;;;;;14.07;6.65;;;;;;;15.02;100.00;99686.06;5093443;28;20032;-78
2021/08/27 04:00:35;;;;;;;9.27;6.05;;;;;;;15.07;100.00;99689.22;5093351;28;20443;-77
2021/08/27 04:03:04;;;;;;;12.05;6.07;;;;;;;15.13;100.00;99685.97;5092789;28;20504;-78
2021/08/27 04:05:35;;;;;;;10.18;6.00;;;;;;;15.50;99.09;99696.13;5093432;28;20054;-76
2021/08/27 04:08:03;;;;;;;9.73;6.32;;;;;;;15.20;100.00;99684.44;5092989;28;20401;-80
2021/08/27 04:10:34;;;;;;;10.27;5.95;;;;;;;15.23;99.29;99694.91;5093179;28;20484;-80
2021/08/27 04:13:02;;;;;;;8.82;5.72;;;;;;;15.44;97.56;99690.34;5092698;28;20109;-77
2021/08/27 04:15:30;;;;;;;9.00;5.85;;;;;;;15.44;96.58;99687.66;5075215;28;20048;-74
2021/08/27 04:17:58;;;;;;;11.00;6.00;;;;;;;15.22;98.82;99695.91;5092421;28;20117;-74
2021/08/27 04:20:29;;;;;;;9.27;5.57;;;;;;;15.31;98.10;99710.34;5093128;28;20040;-74
2021/08/27 04:22:57;;;;;;;10.00;6.15;;;;;;;15.26;98.86;99704.56;5092807;28;20040;-74
2021/08/27 04:25:25;;;;;;;8.90;5.95;;;;;;;15.20;98.10;99697.88;5092950;28;20044;-73
2021/08/27 04:27:55;;;;;;;9.15;5.80;;;;;;;15.23;98.86;99692.22;5092553;28;20047;-74
2021/08/27 04:30:23;;;;;;;10.40;5.82;;;;;;;15.20;99.24;99695.19;5092813;28;20049;-75
2021/08/27 04:32:51;;;;;;;9.95;5.70;;;;;;;15.30;97.95;99701.44;5093079;28;20036;-76
2021/08/27 04:35:20;;;;;;;8.88;5.85;;;;;;;15.25;98.39;99702.81;5093027;28;20048;-72
2021/08/27 04:37:48;;;;;;;9.30;5.97;;;;;;;15.26;98.27;99691.97;5092832;28;20040;-76
2021/08/27 04:40:16;;;;;;;8.80;5.80;;;;;;;15.04;98.18;99684.09;5092751;28;20059;-77
2021/08/27 04:42:44;;;;;;;8.48;5.47;;;;;;;15.12;98.50;99685.13;5093420;28;20048;-76
2021/08/27 04:45:18;;;;;;;10.45;6.10;;;;;;;15.12;98.32;99671.69;5092899;28;20071;-75
2021/08/27 04:47:47;;;;;;;8.67;5.60;;;;;;;15.07;98.31;99668.56;5074552;28;20055;-75
2021/08/27 04:50:15;;;;;;;11.13;5.65;;;;;;;15.06;98.38;99671.41;5092316;28;20040;-75
2021/08/27 04:52:43;;;;;;;10.40;5.70;;;;;;;15.05;97.10;99675.03;5092697;28;20481;-72
2021/08/27 04:55:12;;;;;;;8.35;5.50;;;;;;;15.16;96.92;99674.97;5074812;28;20139;-76
2021/08/27 04:57:42;;;;;;;8.35;5.32;;;;;;;15.18;95.64;99673.00;5112106;28;20043;-75
2021/08/27 05:00:11;;;;;;;8.82;5.57;;;;;;;15.12;97.06;99670.84;5116624;28;20044;-74
2021/08/27 05:02:41;;;;;;;10.40;5.40;;;;;;;15.18;96.59;99676.53;5116628;28;20427;-75
2021/08/27 05:05:11;;;;;;;9.70;5.40;;;;;;;14.96;97.54;99674.03;5116498;28;20062;-70
2021/08/27 05:07:39;;;;;;;12.75;5.75;;;;;;;14.67;98.95;99679.25;5098698;28;20047;-71
2021/08/27 05:10:09;;;;;;;8.52;5.63;;;;;;;14.93;97.21;99674.28;5116385;28;20044;-71
2021/08/27 05:12:37;;;;;;;7.63;5.45;;;;;;;15.02;96.86;99675.31;5116718;28;20031;-71
2021/08/27 05:15:07;;;;;;;9.15;5.68;;;;;;;14.86;97.39;99684.72;5116394;28;20050;-70
2021/08/27 05:17:38;;;;;;;9.98;6.07;;;;;;;14.80;97.84;99687.09;5116659;28;20495;-70
2021/08/27 05:20:09;;;;;;;10.07;5.95;;;;;;;14.87;97.41;99686.44;5116063;28;20032;-70
2021/08/27 05:22:37;;;;;;;10.45;6.00;;;;;;;14.89;97.19;99680.91;5116476;28;20040;-70
2021/08/27 05:25:06;;;;;;;8.70;5.47;;;;;;;14.96;97.09;99692.84;5097996;28;20088;-70
2021/08/27 05:27:36;;;;;;;9.90;6.40;;;;;;;14.99;96.65;99705.13;5116456;28;20040;-68
2021/08/27 05:30:06;;;;;;;10.55;6.20;;;;;;;14.98;96.58;99700.75;5116331;28;20055;-70
2021/08/27 05:32:35;;;;;;;11.43;6.63;;;;;;;14.99;97.25;99697.06;5116489;28;20488;-70
2021/08/27 05:35:03;;;;;;;10.07;6.32;;;;;;;14.94;97.95;99693.94;5115822;28;20071;-69
2021/08/27 05:37:38;;;;;;;11.50;7.13;;;;;;;15.02;96.19;99686.06;5116188;28;20389;-70
2021/08/27 05:40:08;;;;;;;8.27;6.20;;;;;;;15.04;96.02;99684.94;5112952;28;20056;-68
2021/08/27 05:42:40;;;;;;;11.50;6.73;;;;;;;15.13;95.65;99692.19;5115773;28;20480;-70
2021/08/27 05:45:10;;;;;;;11.02;7.07;;;;;;;15.10;95.93;99705.03;5115153;28;20272;-71
2021/08/27 05:47:38;;;;;;;11.05;7.05;;;;;;;15.13;95.34;99702.94;5115650;28;20051;-71
2021/08/27 05:50:08;;;;;;;9.93;7.00;;;;;;;15.03;96.09;99698.50;5115660;28;20044;-69
2021/08/27 05:52:39;;;;;;;11.35;7.53;;;;;;;15.10;95.91;99705.91;5115721;28;20097;-70
2021/08/27 05:55:11;;;;;;;11.20;7.07;;;;;;;15.25;95.00;99697.47;5115513;28;20040;-69
2021/08/27 05:57:40;;;;;;;12.85;7.25;;;;;;;15.30;94.78;99690.69;5115499;28;20039;-70
2021/08/27 06:00:09;;;;;;;11.73;7.93;;;;;;;15.31;95.34;99687.03;5115100;28;20400;-69
2021/08/27 06:02:38;;;;;;;10.40;7.63;;;;;;;15.31;94.89;99684.34;5115581;28;20092;-71
2021/08/27 06:05:08;;;;;;;11.45;7.38;;;;;;;15.30;96.07;99688.00;5116064;28;20056;-68
2021/08/27 06:07:37;;;;;;;11.50;6.63;;;;;;;15.26;94.80;99685.75;5115714;28;20393;-69
2021/08/27 06:10:08;;;;;;;11.50;7.47;;;;;;;15.25;94.79;99692.09;5115386;28;20103;-68
2021/08/27 06:12:39;;;;;;;10.07;7.40;;;;;;;15.15;95.93;99692.03;5115740;28;20476;-68
2021/08/27 06:15:08;;;;;;;10.23;6.70;;;;;;;15.29;95.06;99690.84;5115592;28;20067;-67
2021/08/27 06:17:37;;;;;;;10.57;6.65;;;;;;;15.39;94.23;99689.03;5115864;28;20044;-67
2021/08/27 06:20:06;;;;;;;11.48;7.35;;;;;;;15.24;94.82;99691.22;5115256;28;20046;-66
2021/08/27 06:22:36;;;;;;;11.85;7.32;;;;;;;15.30;94.37;99690.69;5115532;28;20074;-66
2021/08/27 06:25:06;;;;;;;10.63;7.05;;;;;;;15.25;95.11;99692.97;5115182;28;20046;-67
2021/08/27 06:27:35;;;;;;;11.90;6.97;;;;;;;15.25;94.60;99703.72;5115619;28;20036;-68
2021/08/27 06:30:04;;;;;;;11.65;7.45;;;;;;;15.27;94.91;99715.16;5115209;28;20092;-70
2021/08/27 06:32:32;;;;;;;10.50;7.30;;;;;;;15.44;93.54;99722.59;5115466;28;20527;-69
2021/08/27 06:35:05;;;;;;;12.93;8.00;;;;;;;15.33;94.97;99725.34;5115195;28;20393;-70
2021/08/27 06:40:23;;;;;;;12.15;8.63;;;;;;;15.35;94.72;99733.31;5114787;28;20497;-71
2021/08/27 06:42:51;;;;;;;10.88;8.00;;;;;;;15.39;94.39;99732.88;5115015;28;20043;-71
2021/08/27 06:45:22;;;;;;;14.43;8.50;;;;;;;15.33;94.80;99732.56;5114571;28;20077;-70
2021/08/27 06:47:50;;;;;;;12.88;8.90;;;;;;;15.32;95.16;99737.09;5114791;28;20382;-71
2021/08/27 06:50:20;;;;;;;14.80;9.35;;;;;;;15.31;96.02;99739.91;5114598;28;20042;-70
2021/08/27 06:52:49;;;;;;;13.52;9.02;;;;;;;15.34;95.40;99740.47;5115257;28;20377;-71
2021/08/27 06:55:17;;;;;;;12.40;9.38;;;;;;;15.44;95.27;99741.41;5114634;28;20043;-67
2021/08/27 06:57:47;;;;;;;11.85;8.35;;;;;;;15.64;93.58;99731.59;5114733;28;20117;-66
2021/08/27 07:00:16;;;;;;;11.68;8.48;;;;;;;15.68;93.28;99732.16;5114317;28;20074;-67
2021/08/27 07:02:45;;;;;;;12.35;8.95;;;;;;;15.60;93.45;99734.66;5114867;28;20476;-67
2021/08/27 07:05:13;;;;;;;13.07;9.57;;;;;;;15.62;94.01;99732.69;5114421;28;20042;-66
2021/08/27 07:07:41;;;;;;;16.63;9.43;;;;;;;15.59;94.01;99732.94;5114590;28;20048;-66
2021/08/27 07:10:10;;;;;;;12.52;9.05;;;;;;;15.87;92.33;99731.34;5114371;28;20043;-67
2021/08/27 07:12:38;;;;;;;11.63;8.73;;;;;;;15.79;91.93;99732.03;5114518;28;20381;-67
2021/08/27 07:15:09;;;;;;;12.88;8.63;;;;;;;15.87;91.39;99726.84;5114076;28;20039;-67
2021/08/27 07:17:37;;;;;;;13.60;8.48;;;;;;;16.04;91.26;99736.06;5114241;28;20048;-67
2021/08/27 07:20:09;;;;;;;13.25;8.57;;;;;;;16.11;92.31;99733.66;5114007;28;20040;-67
2021/08/27 07:22:38;;;;;;;11.57;8.52;;;;;;;16.17;91.41;99735.78;5114353;28;20040;-66
2021/08/27 07:25:07;;;;;;;11.07;8.75;;;;;;;16.26;91.18;99734.94;5113977;28;20035;-66
2021/08/27 07:27:36;;;;;;;12.10;8.00;;;;;;;16.28;91.23;99744.56;5114116;28;20089;-66
2021/08/27 07:30:06;;;;;;;10.63;8.80;;;;;;;16.25;89.94;99746.69;5114130;28;20047;-67
2021/08/27 07:32:36;;;;;;;10.80;8.48;;;;;;;16.21;89.33;99750.66;5114232;28;20043;-66
2021/08/27 07:35:05;;;;;;;13.98;9.02;;;;;;;16.40;88.58;99747.97;5113939;28;20054;-71
2021/08/27 07:37:34;;;;;;;11.60;8.70;;;;;;;16.57;89.45;99747.25;5114260;28;20039;-66
2021/08/27 07:40:02;;;;;;;10.65;8.43;;;;;;;16.82;88.51;99745.88;5113666;28;20151;-66
2021/08/27 07:42:31;;;;;;;11.38;8.60;;;;;;;17.19;85.75;99752.31;5114037;28;20042;-67
2021/08/27 07:44:59;;;;;;;11.35;8.52;;;;;;;17.15;84.11;99752.56;5114018;28;20408;-66
2021/08/27 07:47:27;;;;;;;9.40;7.20;;;;;;;17.35;84.45;99757.91;5113854;28;20445;-66
2021/08/27 07:49:57;;;;;;;9.20;7.22;;;;;;;17.46;82.81;99752.31;5113851;28;20039;-66
2021/08/27 07:52:25;;;;;;;10.02;7.53;;;;;;;17.29;82.13;99758.50;5113328;28;20458;-66
2021/08/27 07:54:53;;;;;;;10.50;7.80;;;;;;;17.31;82.14;99761.91;5113809;28;20036;-66
2021/08/27 07:57:22;;;;;;;11.93;8.07;;;;;;;17.36;84.65;99754.22;5113613;28;20108;-66
2021/08/27 07:59:50;;;;;;;12.20;8.90;;;;;;;17.58;82.08;99753.84;5113695;28;20036;-66
2021/08/27 08:02:18;;;;;;;11.25;7.50;;;;;;;17.66;80.06;99753.97;5113332;28;20044;-66
2021/08/27 08:04:46;;;;;;;9.27;6.63;;;;;;;17.95;81.51;99759.22;5113611;28;20043;-66
2021/08/27 08:07:16;;;;;;;6.90;4.68;;;;;;;17.93;77.64;99757.66;5113171;28;20046;-66
2021/08/27 08:09:44;;;;;;;6.82;4.60;;;;;;;17.96;78.11;99762.78;5113618;28;20043;-66
2021/08/27 08:12:12;;;;;;;7.55;4.82;;;;;;;18.05;78.00;99759.16;5113321;28;20050;-66
2021/08/27 08:14:40;;;;;;;8.73;4.97;;;;;;;18.37;77.45;99750.53;5113484;28;20488;-66
2021/08/27 08:17:08;;;;;;;7.38;5.00;;;;;;;18.42;76.64;99758.16;5113186;28;20428;-67
2021/08/27 08:19:37;;;;;;;6.93;4.97;;;;;;;18.41;75.13;99756.47;5095085;28;20096;-66
2021/08/27 08:22:05;;;;;;;8.27;5.32;;;;;;;18.49;77.89;99765.50;5113053;28;20108;-66
2021/08/27 08:24:35;;;;;;;9.30;5.57;;;;;;;18.39;74.78;99761.19;5113491;28;20067;-66
2021/08/27 08:27:03;;;;;;;7.95;4.82;;;;;;;18.34;75.78;99771.63;5113438;28;20035;-66
2021/08/27 08:29:32;;;;;;;8.23;4.53;;;;;;;18.36;75.48;99775.00;5113143;28;20046;-66
2021/08/27 08:32:00;;;;;;;7.30;4.85;;;;;;;18.39;74.24;99775.53;5117220;28;20369;-66
2021/08/27 08:34:28;;;;;;;9.30;4.85;;;;;;;18.28;74.52;99779.31;5117544;28;20043;-66
2021/08/27 08:36:56;;;;;;;8.07;4.97;;;;;;;18.48;73.72;99779.16;5117811;28;20040;-66
2021/08/27 08:39:24;;;;;;;7.43;5.00;;;;;;;18.31;74.38;99778.16;5117283;28;20084;-66
2021/08/27 08:41:54;;;;;;;7.57;5.28;;;;;;;18.41;73.83;99772.66;5117265;28;20058;-66
2021/08/27 08:44:23;;;;;;;7.80;4.70;;;;;;;18.37;74.78;99771.28;5117101;28;20485;-67
2021/08/27 08:46:53;;;;;;;8.05;5.03;;;;;;;18.50;73.76;99774.44;5117342;28;20096;-67
2021/08/27 08:49:27;;;;;;;7.38;4.95;;;;;;;18.60;73.93;99769.81;5117174;28;20055;-66
2021/08/27 08:51:57;;;;;;;7.60;4.72;;;;;;;18.60;73.17;99772.50;5117243;28;20036;-67
2021/08/27 08:54:25;;;;;;;7.43;4.78;;;;;;;18.98;72.27;99770.50;5116950;28;20400;-66
2021/08/27 08:56:56;;;;;;;6.38;3.92;;;;;;;19.43;70.78;99771.13;5117082;28;20557;-67
2021/08/27 08:59:26;;;;;;;7.72;3.83;;;;;;;19.60;68.68;99765.84;5116856;28;20035;-67
2021/08/27 09:01:54;;;;;;;7.07;3.92;;;;;;;19.58;67.88;99766.00;5116908;28;20040;-66
2021/08/27 09:04:27;;;;;;;5.63;3.70;;;;;;;19.47;68.52;99770.81;5116892;28;20040;-66
2021/08/27 09:06:56;;;;;;;12.38;7.68;;;;;;;19.47;69.96;99770.81;5117111;28;20040;-66
2021/08/27 09:09:30;;;;;;;5.68;3.42;;;;;;;19.49;68.59;99774.19;5116681;28;20043;-67
2021/08/27 09:12:17;;;;;;;6.55;3.67;;;;;;;19.13;68.85;99768.94;5116826;28;20079;-66
2021/08/27 09:14:56;;;;;;;6.75;3.60;;;;;;;19.04;68.85;99775.28;5098693;28;20093;-66
2021/08/27 09:17:31;;;;;;;6.70;3.50;;;;;;;19.14;68.87;99765.22;5116707;28;20058;-66
2021/08/27 09:20:02;;;;;;;6.18;3.03;;;;;;;19.26;67.94;99774.75;5116778;28;20446;-67
2021/08/27 09:22:44;;;;;;;6.22;3.50;;;;;;;19.31;68.18;99767.03;5116650;28;20090;-66
2021/08/27 09:25:13;;;;;;;5.18;3.65;;;;;;;19.25;67.98;99767.66;5116712;28;20040;-67
2021/08/27 09:28:03;;;;;;;7.07;4.00;;;;;;;19.26;67.56;99773.91;5116704;28;20065;-66
2021/08/27 09:30:36;;;;;;;6.25;3.40;;;;;;;19.36;68.63;99770.06;5116313;28;20035;-66
2021/08/27 09:33:10;;;;;;;7.47;3.50;;;;;;;19.39;68.14;99769.75;5116936;28;20046;-66
2021/08/27 09:35:39;;;;;;;7.18;2.97;;;;;;;19.17;68.72;99770.28;5116684;28;20051;-66
2021/08/27 09:38:16;;;;;;;5.97;3.33;;;;;;;19.26;68.08;99774.75;5116282;28;20039;-66
2021/08/27 09:40:48;;;;;;;5.22;3.33;;;;;;;19.16;68.47;99779.41;5115966;28;20059;-66
2021/08/27 09:43:26;;;;;;;6.95;3.40;;;;;;;19.04;67.02;99776.13;5116212;28;20100;-67
2021/08/27 09:45:57;;;;;;;6.53;3.30;;;;;;;18.76;67.79;99778.09;5116554;28;20393;-66
2021/08/27 09:48:25;;;;;;;6.35;3.20;;;;;;;18.84;68.20;99780.88;5116088;28;20036;-66
2021/08/27 09:50:54;;;;;;;4.70;2.50;;;;;;;18.65;67.30;99781.06;5116045;28;20043;-66
2021/08/27 09:53:22;;;;;;;6.13;3.08;;;;;;;18.63;68.08;99783.03;5115648;28;20441;-67
2021/08/27 09:55:55;;;;;;;5.60;3.05;;;;;;;18.50;68.83;99782.56;5116167;28;20039;-66
2021/08/27 09:58:25;;;;;;;8.23;3.35;;;;;;;18.58;68.39;99775.38;5115939;28;20052;-66
2021/08/27 10:01:05;;;;;;;8.10;3.55;;;;;;;18.47;69.23;99788.28;5116124;28;20458;-66
2021/08/27 10:03:34;;;;;;;6.28;3.05;;;;;;;18.55;67.93;99780.25;5115466;28;20493;-67
2021/08/27 10:06:03;;;;;;;5.78;2.90;;;;;;;18.61;67.79;99776.91;5097393;28;20063;-66
2021/08/27 10:08:35;;;;;;;5.47;2.67;;;;;;;18.61;66.45;99790.41;5115607;28;20050;-66
2021/08/27 10:11:19;;;;;;;6.00;2.80;;;;;;;18.66;66.44;99780.03;5115663;28;20036;-66
2021/08/27 10:13:49;;;;;;;6.68;2.10;;;;;;;18.74;63.91;99785.53;5115814;28;20049;-66
2021/08/27 10:16:18;;;;;;;4.78;2.28;;;;;;;18.75;63.74;99784.50;5115382;28;20035;-67
2021/08/27 10:18:46;;;;;;;4.80;2.05;;;;;;;18.68;63.67;99791.53;5115279;28;20063;-66
2021/08/27 10:21:14;;;;;;;4.85;2.50;;;;;;;18.88;63.16;99787.66;5115509;28;20073;-75
2021/08/27 10:23:44;;;;;;;4.82;2.45;;;;;;;18.74;63.23;99780.13;5115931;28;20044;-66
2021/08/27 10:26:15;;;;;;;4.20;2.35;;;;;;;19.16;63.03;99784.81;5115753;28;20108;-66
2021/08/27 10:28:44;;;;;;;5.57;2.40;;;;;;;19.34;62.27;99791.03;5115475;28;20054;-66
2021/08/27 10:31:14;;;;;;;4.95;2.50;;;;;;;19.25;62.70;99789.28;5115407;28;20050;-66
2021/08/27 10:34:06;;;;;;;7.22;2.60;;;;;;;19.23;62.65;99788.59;5115624;28;20048;-66
2021/08/27 10:36:50;;;;;;;4.07;2.20;;;;;;;19.39;61.75;99785.97;5115024;28;20050;-66
2021/08/27 10:39:44;;;;;;;5.68;2.47;;;;;;;19.39;63.63;99777.84;5114885;28;20477;-67
2021/08/27 10:42:26;;;;;;;;;;;;;;;19.65;64.12;99779.72;5115485;28;20046;-66
2021/08/27 10:44:55;;;;;;;5.80;2.85;;;;;;;19.83;63.88;99772.38;5114533;28;19923;-66
2021/08/27 10:47:25;;;;;;;7.57;3.28;;;;;;;19.71;64.11;99768.25;5114587;28;20408;-66
2021/08/27 10:49:58;;;;;;;5.70;3.00;;;;;;;19.67;64.11;99778.53;5114826;28;20046;-66
2021/08/27 10:52:38;;;;;;;6.13;2.55;;;;;;;19.22;64.19;99786.06;5114346;28;20047;-66
2021/08/27 10:55:12;;;;;;;5.30;2.63;;;;;;;19.09;64.29;99790.00;5114743;28;20046;-66
2021/08/27 10:57:48;;;;;;;4.90;2.65;;;;;;;19.01;63.49;99789.09;5114704;28;20043;-66
2021/08/27 11:00:35;;;;;;;4.10;2.05;;;;;;;19.05;62.93;99787.78;5114748;28;20046;-67
2021/08/27 11:03:09;;;;;;;3.50;1.80;;;;;;;19.19;63.19;99786.34;5114519;28;20130;-66
2021/08/27 11:05:45;;;;;;;5.20;2.47;;;;;;;19.33;61.75;99785.78;5114505;28;20053;-66
2021/08/27 11:08:14;;;;;;;4.57;2.25;;;;;;;19.38;61.92;99789.69;5114639;28;20101;-67
2021/08/27 11:11:25;;;;;;;2.42;1.52;;;;;;;19.38;60.22;99792.38;5114524;28;20068;-66
2021/08/27 11:14:13;;;;;;;2.92;1.42;;;;;;;19.15;60.24;99796.66;5114526;28;20484;-66
2021/08/27 11:16:54;;;;;;;3.55;1.60;;;;;;;19.21;60.27;99798.72;5114416;28;20484;-65
2021/08/27 11:19:30;;;;;;;2.75;1.38;;;;;;;19.04;59.71;99796.91;5114102;28;20519;-66
2021/08/27 11:22:30;;;;;;;6.32;1.70;;;;;;;18.95;59.63;99793.28;5114266;28;20055;-65
2021/08/27 11:25:16;;;;;;;3.85;1.27;;;;;;;18.90;60.94;99795.59;5114442;28;20074;-65
2021/08/27 11:28:14;;;;;;;3.17;1.60;;;;;;;18.98;60.47;99786.72;5114461;28;20074;-65
2021/08/27 11:30:47;;;;;;;3.45;1.60;;;;;;;18.98;59.79;99787.56;5114149;28;20043;-65
2021/08/27 11:34:01;;;;;;;5.15;1.30;;;;;;;19.34;59.87;99788.31;5113915;28;20044;-66
2021/08/27 11:36:34;;;;;;;;;;;;;;;19.50;57.95;99784.88;5114219;28;20485;-66
2021/08/27 11:39:05;;;;;;;3.22;1.30;;;;;;;19.54;57.75;99777.28;5114031;28;19919;-65
2021/08/27 11:41:36;;;;;;;2.55;1.10;;;;;;;19.78;56.20;99774.69;5114125;28;20063;-65
2021/08/27 11:44:09;;;;;;;2.72;1.10;;;;;;;19.60;58.12;99782.09;5113944;28;20039;-65
2021/08/27 11:46:39;;;;;;;2.05;1.00;;;;;;;19.28;59.11;99774.59;5113865;28;20039;-65
2021/08/27 11:49:24;;;;;;;3.03;1.23;;;;;;;19.23;59.50;99780.47;5113772;28;20044;-65
2021/08/27 11:52:05;;;;;;;1.27;0.98;;;;;;;19.29;57.46;99782.53;5113740;28;20084;-65
2021/08/27 11:54:36;;;;;;;2.90;1.17;;;;;;;19.31;58.62;99777.84;5113553;28;20093;-65